Time;durP1;ratioP1;P1;durP2;ratioP2;P2;SDS_P1;SDS_P2;PMS_P1;PMS_P2;Temp;Humidity;BMP_temperature;BMP_pressure;BME280_temperature;BME280_humidity;BME280_pressure;Samples;Min_cycle;Max_cycle;Signal;HPM_P1;HPM_P2
2024/03/11 00:00:15;;;;;;;28.87;25.87;;;8.30;1.00;;;;;;4810992;29;20439;-67
2024/03/11 00:02:41;;;;;;;30.23;25.43;;;;;;;;;;4835870;29;20423;-60
2024/03/11 00:05:08;;;;;;;29.80;25.30;;;;;;;;;;4808980;29;21319;-67
2024/03/11 00:07:37;;;;;;;28.27;25.30;;;8.20;1.00;;;;;;4806955;29;20423;-67
2024/03/11 00:10:05;;;;;;;29.60;25.20;;;8.10;1.00;;;;;;4810248;29;20425;-67
2024/03/11 00:12:36;;;;;;;29.70;26.50;;;8.20;1.00;;;;;;4808204;29;20424;-57
2024/03/11 00:15:07;;;;;;;29.83;26.83;;;8.50;16.50;;;;;;4814008;29;20964;-67
2024/03/11 00:17:35;;;;;;;29.70;26.60;;;8.40;34.10;;;;;;4801316;29;20500;-59
2024/03/11 00:20:01;;;;;;;29.47;26.33;;;8.40;4.60;;;;;;4803478;29;20443;-67
2024/03/11 00:22:27;;;;;;;29.10;26.17;;;;;;;;;;4823511;29;20471;-67
2024/03/11 00:24:53;;;;;;;30.93;27.73;;;7.90;45.90;;;;;;4805735;29;20189;-67
2024/03/11 00:27:18;;;;;;;32.90;29.40;;;8.80;90.60;;;;;;4809862;29;20838;-46
2024/03/11 00:29:44;;;;;;;30.80;27.50;;;9.00;99.90;;;;;;4813570;29;20971;-48
2024/03/11 00:32:14;;;;;;;32.17;28.90;;;9.10;99.90;;;;;;4813121;29;20195;-47
2024/03/11 00:34:41;;;;;;;30.37;26.80;;;9.30;99.90;;;;;;4804464;29;20335;-47
2024/03/11 00:37:07;;;;;;;30.10;26.90;;;9.50;99.90;;;;;;4788140;29;20542;-67
2024/03/11 00:39:34;;;;;;;30.47;27.27;;;9.70;99.90;;;;;;4803355;29;20455;-67
2024/03/11 00:42:00;;;;;;;31.40;28.10;;;9.80;66.30;;;;;;4810908;29;20540;-58
2024/03/11 00:44:26;;;;;;;29.03;26.10;;;9.90;48.30;;;;;;4803067;29;20798;-65
2024/03/11 00:46:52;;;;;;;30.83;27.63;;;10.10;24.70;;;;;;4804877;29;20198;-66
2024/03/11 00:49:19;;;;;;;30.03;27.10;;;10.20;5.40;;;;;;4802891;29;20432;-67
2024/03/11 00:51:45;;;;;;;30.43;26.70;;;10.30;1.00;;;;;;4811894;29;20808;-67
2024/03/11 00:54:11;;;;;;;30.17;27.17;;;10.40;1.00;;;;;;4802918;29;20448;-68
2024/03/11 00:56:37;;;;;;;29.43;26.37;;;10.50;1.00;;;;;;4809422;29;20443;-68
2024/03/11 00:59:04;;;;;;;28.00;25.10;;;10.60;1.00;;;;;;4803450;29;20901;-67
2024/03/11 01:01:30;;;;;;;28.07;25.10;;;10.60;1.00;;;;;;4810366;29;20848;-68
2024/03/11 01:03:58;;;;;;;28.00;25.40;;;10.80;1.00;;;;;;4803493;29;20500;-68
2024/03/11 01:06:27;;;;;;;28.00;25.40;;;10.90;1.00;;;;;;4809561;29;20470;-68
2024/03/11 01:08:54;;;;;;;27.33;24.63;;;10.90;1.00;;;;;;4806228;29;21004;-52
2024/03/11 01:11:23;;;;;;;28.00;25.30;;;11.00;1.00;;;;;;4811870;29;20600;-50
2024/03/11 01:13:48;;;;;;;27.37;24.87;;;11.00;1.00;;;;;;4803663;29;20471;-49
2024/03/11 01:16:15;;;;;;;28.73;26.03;;;11.10;99.90;;;;;;4804372;29;20439;-48
2024/03/11 01:18:40;;;;;;;27.83;24.83;;;11.10;99.90;;;;;;4805773;29;20277;-51
2024/03/11 01:21:06;;;;;;;26.83;24.43;;;11.10;99.90;;;;;;4802447;29;20562;-48
2024/03/11 01:23:32;;;;;;;27.13;24.23;;;11.10;99.90;;;;;;4807685;29;20657;-51
2024/03/11 01:25:57;;;;;;;27.30;24.83;;;11.10;99.90;;;;;;4802162;29;20245;-51
2024/03/11 01:28:23;;;;;;;27.40;24.70;;;11.10;99.90;;;;;;4815008;29;20222;-48
2024/03/11 01:30:49;;;;;;;27.17;24.33;;;11.10;99.90;;;;;;4802201;29;20286;-51
2024/03/11 01:33:15;;;;;;;27.57;25.00;;;11.20;99.90;;;;;;4804002;29;20289;-49
2024/03/11 01:35:40;;;;;;;28.60;25.90;;;11.20;99.90;;;;;;4809085;29;20498;-47
2024/03/11 01:38:08;;;;;;;27.20;24.50;;;11.20;68.00;;;;;;4815722;29;20197;-49
2024/03/11 01:40:34;;;;;;;25.90;23.77;;;11.20;21.00;;;;;;4819354;29;20255;-45
2024/03/11 01:43:00;;;;;;;26.50;24.00;;;11.20;1.00;;;;;;4817438;29;20783;-46
2024/03/11 01:45:26;;;;;;;27.60;25.10;;;11.20;1.00;;;;;;4802248;29;20443;-48
2024/03/11 01:47:52;;;;;;;28.00;25.00;;;11.20;1.00;;;;;;4808490;29;20464;-51
2024/03/11 01:50:18;;;;;;;27.80;25.03;;;11.20;1.00;;;;;;4802365;29;20190;-48
2024/03/11 01:52:49;;;;;;;47.20;37.37;;;11.20;1.00;;;;;;4809264;29;20478;-47
2024/03/11 01:55:16;;;;;;;45.50;40.50;;;11.20;1.00;;;;;;4802524;29;20451;-51
2024/03/11 01:57:42;;;;;;;44.80;40.07;;;11.00;1.00;;;;;;4807886;29;20443;-49
2024/03/11 02:00:08;;;;;;;39.20;35.00;;;10.80;99.90;;;;;;4802137;29;20427;-46
2024/03/11 02:02:36;;;;;;;34.77;31.07;;;10.70;1.00;;;;;;4817837;29;20477;-45
2024/03/11 02:05:03;;;;;;;30.70;27.70;;;10.60;1.00;;;;;;4817990;29;20420;-50
2024/03/11 02:07:29;;;;;;;29.50;26.60;;;10.50;1.00;;;;;;4815261;29;20458;-52
2024/03/11 02:09:55;;;;;;;30.70;27.43;;;10.30;99.90;;;;;;4816333;29;20435;-47
2024/03/11 02:12:21;;;;;;;30.93;27.93;;;10.20;1.00;;;;;;4825406;29;20425;-45
2024/03/11 02:14:47;;;;;;;29.43;26.43;;;10.10;99.90;;;;;;4813297;29;20230;-46
2024/03/11 02:17:14;;;;;;;30.63;27.40;;;10.00;1.00;;;;;;4807079;29;20203;-48
2024/03/11 02:19:41;;;;;;;31.10;27.77;;;9.80;1.00;;;;;;4823267;29;20550;-49
2024/03/11 02:22:08;;;;;;;30.13;27.13;;;9.70;1.00;;;;;;4805631;29;20516;-45
2024/03/11 02:24:35;;;;;;;30.47;27.27;;;9.50;99.90;;;;;;4831938;29;20951;-47
2024/03/11 02:27:04;;;;;;;30.60;27.37;;;9.40;99.90;;;;;;4811180;29;20458;-45
2024/03/11 02:29:30;;;;;;;32.60;29.20;;;9.40;99.90;;;;;;4814684;29;20435;-51
2024/03/11 02:31:55;;;;;;;29.97;27.07;;;9.20;1.00;;;;;;4805191;29;20515;-67
2024/03/11 02:34:21;;;;;;;32.60;27.60;;;9.20;1.00;;;;;;4812564;29;20926;-67
2024/03/11 02:36:50;;;;;;;30.60;26.90;;;9.10;1.00;;;;;;4805836;29;20197;-63
2024/03/11 02:39:17;;;;;;;30.00;27.00;;;9.10;1.00;;;;;;4812660;29;20198;-48
2024/03/11 02:41:46;;;;;;;29.90;27.13;;;9.10;1.00;;;;;;4805922;29;20475;-50
2024/03/11 02:44:12;;;;;;;32.33;28.17;;;9.00;1.00;;;;;;4821022;29;20427;-47
2024/03/11 02:46:43;;;;;;;30.70;27.60;;;9.00;1.00;;;;;;4822879;29;20503;-50
2024/03/11 02:49:12;;;;;;;31.17;27.80;;;9.00;1.00;;;;;;4813401;29;20850;-48
2024/03/11 02:51:38;;;;;;;31.63;28.20;;;9.00;1.00;;;;;;4805563;29;20436;-45
2024/03/11 02:54:05;;;;;;;29.87;26.53;;;8.90;1.00;;;;;;4808885;29;20946;-47
2024/03/11 02:56:31;;;;;;;30.63;27.53;;;8.90;1.00;;;;;;4805564;29;20607;-47
2024/03/11 02:58:58;;;;;;;30.77;27.60;;;8.90;1.00;;;;;;4812573;29;20454;-50
2024/03/11 03:01:24;;;;;;;31.33;27.50;;;8.80;1.00;;;;;;4807865;29;20475;-51
2024/03/11 03:03:49;;;;;;;32.10;28.77;;;8.80;1.00;;;;;;4830619;29;20460;-67
2024/03/11 03:06:18;;;;;;;29.80;26.73;;;8.80;1.00;;;;;;4812949;29;20202;-66
2024/03/11 03:08:44;;;;;;;31.53;28.27;;;8.80;1.00;;;;;;4808750;29;20198;-67
2024/03/11 03:11:10;;;;;;;31.33;28.03;;;8.80;1.00;;;;;;4804597;29;20435;-56
2024/03/11 03:13:36;;;;;;;31.93;28.77;;;8.70;1.00;;;;;;4809785;29;20962;-66
2024/03/11 03:16:02;;;;;;;32.30;28.90;;;8.70;1.00;;;;;;4804875;29;20431;-52
2024/03/11 03:18:28;;;;;;;32.33;29.03;;;8.70;1.00;;;;;;4809619;29;20645;-50
2024/03/11 03:20:53;;;;;;;32.73;29.40;;;8.60;1.00;;;;;;4804859;29;20261;-47
2024/03/11 03:23:19;;;;;;;30.97;27.87;;;8.60;1.00;;;;;;4805253;29;20435;-50
2024/03/11 03:25:45;;;;;;;35.83;27.93;;;8.60;1.00;;;;;;4819664;29;20225;-46
2024/03/11 03:28:10;;;;;;;32.60;28.20;;;8.50;1.00;;;;;;4804465;29;20281;-50
2024/03/11 03:30:37;;;;;;;32.13;28.67;;;8.50;1.00;;;;;;4816137;29;20191;-49
2024/03/11 03:33:03;;;;;;;32.33;28.60;;;8.50;1.00;;;;;;4791451;29;20295;-49
2024/03/11 03:35:30;;;;;;;29.40;26.37;;;8.60;1.00;;;;;;4821853;29;20440;-48
2024/03/11 03:37:55;;;;;;;32.37;28.90;;;8.60;8.70;;;;;;4807013;29;20434;-60
2024/03/11 03:40:23;;;;;;;30.03;26.93;;;8.70;10.70;;;;;;4818373;29;20423;-66
2024/03/11 03:42:49;;;;;;;30.90;27.73;;;8.70;5.90;;;;;;4804303;29;20346;-68
2024/03/11 03:45:19;;;;;;;31.00;27.77;;;8.70;1.00;;;;;;4820292;29;20538;-67
2024/03/11 03:47:46;;;;;;;30.90;27.63;;;8.70;1.00;;;;;;4804355;29;20436;-67
2024/03/11 03:50:12;;;;;;;31.77;28.30;;;8.80;1.00;;;;;;4817976;29;20517;-67
2024/03/11 03:52:41;;;;;;;34.20;29.77;;;8.80;1.00;;;;;;4803913;29;20432;-67
2024/03/11 03:55:11;;;;;;;31.67;27.47;;;8.80;1.00;;;;;;4814197;29;20439;-51
2024/03/11 03:57:37;;;;;;;31.40;28.27;;;8.80;1.00;;;;;;4803772;29;20432;-52
2024/03/11 04:00:05;;;;;;;29.83;27.10;;;8.80;1.00;;;;;;4811600;29;20845;-49
2024/03/11 04:02:31;;;;;;;30.17;27.07;;;8.90;1.20;;;;;;4806768;29;20514;-50
2024/03/11 04:04:59;;;;;;;32.20;28.77;;;8.90;1.00;;;;;;4806232;29;20535;-46
2024/03/11 04:07:25;;;;;;;31.63;28.13;;;8.90;1.00;;;;;;4792158;29;20468;-47
2024/03/11 04:09:51;;;;;;;31.03;27.83;;;9.00;1.00;;;;;;4816452;29;20438;-49
2024/03/11 04:12:19;;;;;;;30.17;26.37;;;9.00;1.00;;;;;;4804665;29;20891;-47
2024/03/11 04:14:44;;;;;;;29.87;26.90;;;9.10;1.00;;;;;;4804506;29;20574;-46
2024/03/11 04:17:12;;;;;;;31.77;28.57;;;9.10;1.00;;;;;;4804153;29;20576;-48
2024/03/11 04:19:39;;;;;;;30.57;27.30;;;9.10;1.00;;;;;;4810374;29;20273;-61
2024/03/11 04:22:04;;;;;;;33.50;28.33;;;9.00;1.00;;;;;;4803209;29;20547;-63
2024/03/11 04:24:31;;;;;;;30.37;27.07;;;9.10;1.00;;;;;;4807649;29;20439;-63
2024/03/11 04:26:59;;;;;;;31.67;28.53;;;9.00;1.00;;;;;;4804103;29;20202;-63
2024/03/11 04:29:27;;;;;;;31.47;27.67;;;9.00;1.00;;;;;;4806507;29;20495;-63
2024/03/11 04:31:53;;;;;;;29.63;26.73;;;9.00;1.00;;;;;;4805944;29;20450;-52
2024/03/11 04:34:20;;;;;;;31.57;28.33;;;9.10;1.00;;;;;;4802901;29;20432;-50
2024/03/11 04:36:46;;;;;;;30.63;27.40;;;9.10;1.00;;;;;;4811539;29;20432;-52
2024/03/11 04:39:14;;;;;;;29.93;26.90;;;9.10;1.00;;;;;;4802963;29;20515;-53
2024/03/11 04:41:42;;;;;;;31.57;28.37;;;9.10;1.00;;;;;;4809389;29;20509;-45
2024/03/11 04:44:08;;;;;;;33.53;29.90;;;9.10;1.00;;;;;;4804670;29;20428;-50
2024/03/11 04:46:34;;;;;;;31.00;27.80;;;9.10;1.00;;;;;;4816381;29;20428;-51
2024/03/11 04:49:00;;;;;;;32.03;28.53;;;9.10;1.00;;;;;;4802780;29;20927;-50
2024/03/11 04:51:26;;;;;;;30.53;27.37;;;9.10;1.00;;;;;;4815113;29;20435;-50
2024/03/11 04:53:51;;;;;;;34.47;27.00;;;9.10;1.00;;;;;;4803317;29;20178;-49
2024/03/11 04:56:17;;;;;;;31.00;27.30;;;9.10;1.00;;;;;;4797463;29;20275;-50
2024/03/11 04:58:42;;;;;;;30.30;27.17;;;9.10;1.00;;;;;;4807943;29;20205;-50
2024/03/11 05:01:08;;;;;;;32.53;29.03;;;9.10;1.00;;;;;;4816201;29;20884;-50
2024/03/11 05:03:34;;;;;;;30.47;27.23;;;9.00;1.00;;;;;;4803821;29;20187;-45
2024/03/11 05:06:00;;;;;;;30.03;26.87;;;9.00;1.00;;;;;;4806891;29;20216;-53
2024/03/11 05:08:26;;;;;;;31.10;27.70;;;9.00;1.00;;;;;;4823403;29;20941;-52
2024/03/11 05:10:51;;;;;;;30.93;27.53;;;9.00;1.00;;;;;;4832236;29;20487;-52
2024/03/11 05:13:17;;;;;;;31.83;28.43;;;9.00;1.00;;;;;;4816790;29;20186;-46
2024/03/11 05:15:44;;;;;;;31.30;28.00;;;9.00;1.00;;;;;;4813246;29;20240;-47
2024/03/11 05:18:10;;;;;;;32.27;28.47;;;9.10;1.00;;;;;;4810354;29;20289;-47
2024/03/11 05:20:36;;;;;;;28.67;25.87;;;9.10;1.00;;;;;;4795109;29;20876;-48
2024/03/11 05:23:02;;;;;;;30.00;27.00;;;9.20;1.00;;;;;;4810986;29;20419;-45
2024/03/11 05:25:27;;;;;;;29.57;26.67;;;9.10;1.00;;;;;;4795285;29;20617;-51
2024/03/11 05:27:53;;;;;;;31.67;28.27;;;9.10;1.00;;;;;;4795645;29;20305;-48
2024/03/11 05:30:19;;;;;;;30.50;27.60;;;9.20;1.00;;;;;;4811326;29;20273;-51
2024/03/11 05:32:45;;;;;;;31.30;28.20;;;9.20;1.00;;;;;;4802146;29;20277;-51
2024/03/11 05:35:11;;;;;;;30.90;27.57;;;9.20;1.00;;;;;;4807114;29;20202;-44
2024/03/11 05:37:36;;;;;;;31.30;28.20;;;9.20;1.00;;;;;;4807108;29;20488;-53
2024/03/11 05:40:11;;;;;;;31.27;28.07;;;9.30;1.00;;;;;;4807620;29;20229;-50
2024/03/11 05:42:38;;;;;;;30.57;27.47;;;9.30;1.00;;;;;;4796390;29;20226;-48
2024/03/11 05:45:04;;;;;;;28.80;25.80;;;9.30;1.00;;;;;;4791105;29;20596;-46
2024/03/11 05:47:30;;;;;;;31.73;27.30;;;9.40;1.00;;;;;;4800516;29;20439;-49
2024/03/11 05:49:55;;;;;;;28.73;25.93;;;9.30;1.00;;;;;;4802114;29;20597;-53
2024/03/11 05:52:24;;;;;;;30.50;27.10;;;9.30;1.00;;;;;;4807378;29;20446;-46
2024/03/11 05:54:51;;;;;;;29.80;26.80;;;9.30;1.00;;;;;;4804715;29;20202;-48
2024/03/11 05:57:25;;;;;;;31.73;28.40;;;9.40;1.00;;;;;;4801970;29;20475;-45
2024/03/11 05:59:51;;;;;;;30.60;27.40;;;9.40;1.00;;;;;;4808737;29;20503;-46
2024/03/11 06:02:17;;;;;;;32.40;28.90;;;9.40;1.00;;;;;;4796351;29;20835;-47
2024/03/11 06:04:43;;;;;;;32.37;28.83;;;9.40;1.00;;;;;;4803475;29;20945;-62
2024/03/11 06:07:09;;;;;;;30.77;27.67;;;9.40;1.00;;;;;;4801256;29;20466;-63
2024/03/11 06:09:38;;;;;;;32.73;28.97;;;9.50;1.00;;;;;;4810238;29;20530;-63
2024/03/11 06:12:07;;;;;;;32.07;28.77;;;9.50;1.00;;;;;;4802374;29;20571;-63
2024/03/11 06:14:33;;;;;;;32.10;28.00;;;9.50;1.00;;;;;;4809858;29;20487;-61
2024/03/11 06:16:59;;;;;;;30.10;27.00;;;9.60;1.00;;;;;;4803762;29;20431;-63
2024/03/11 06:19:25;;;;;;;32.30;29.10;;;9.60;1.00;;;;;;4809474;29;20588;-63
2024/03/11 06:21:53;;;;;;;32.90;29.50;;;9.70;1.00;;;;;;4804980;29;20480;-53
2024/03/11 06:24:19;;;;;;;31.47;28.10;;;9.70;1.00;;;;;;4798280;29;20458;-56
2024/03/11 06:26:46;;;;;;;32.57;29.27;;;9.70;1.00;;;;;;4797936;29;20448;-64
2024/03/11 06:29:11;;;;;;;28.93;25.90;;;9.70;1.00;;;;;;4810289;29;20190;-63
2024/03/11 06:31:38;;;;;;;30.87;27.60;;;9.70;1.00;;;;;;4800827;29;20441;-64
2024/03/11 06:34:06;;;;;;;31.10;27.70;;;9.80;1.00;;;;;;4800206;29;20653;-64
2024/03/11 06:36:33;;;;;;;30.70;27.60;;;9.80;1.00;;;;;;4809447;29;20435;-64
2024/03/11 06:38:58;;;;;;;33.63;29.37;;;9.80;1.00;;;;;;4809915;29;20439;-46
2024/03/11 06:41:25;;;;;;;32.33;28.83;;;9.80;1.00;;;;;;4809400;29;20496;-50
2024/03/11 06:43:51;;;;;;;31.50;28.10;;;9.80;1.00;;;;;;4798362;29;20511;-50
2024/03/11 06:46:18;;;;;;;30.80;27.50;;;9.80;1.00;;;;;;4810083;29;20439;-49
2024/03/11 06:48:44;;;;;;;32.63;28.30;;;9.80;1.00;;;;;;4794945;29;20834;-51
2024/03/11 06:51:11;;;;;;;32.10;28.33;;;9.90;1.00;;;;;;4804562;29;20453;-48
2024/03/11 06:53:38;;;;;;;31.67;28.30;;;9.90;1.00;;;;;;4803582;29;20186;-48
2024/03/11 06:56:12;;;;;;;30.70;27.07;;;9.90;1.00;;;;;;4809937;29;20442;-50
2024/03/11 06:58:38;;;;;;;32.07;28.90;;;9.90;1.00;;;;;;4807554;29;20430;-45
2024/03/11 07:01:10;;;;;;;35.60;28.60;;;9.90;1.00;;;;;;4800830;29;20607;-47
2024/03/11 07:03:35;;;;;;;30.30;27.10;;;9.90;1.00;;;;;;4806241;29;20438;-51
2024/03/11 07:06:02;;;;;;;34.00;28.83;;;9.80;1.00;;;;;;4812988;29;20439;-48
2024/03/11 07:08:30;;;;;;;29.63;25.63;;;9.90;1.00;;;;;;4803749;29;20443;-50
2024/03/11 07:10:56;;;;;;;27.13;24.23;;;9.90;1.00;;;;;;4812559;29;20802;-50
2024/03/11 07:13:22;;;;;;;29.47;25.60;;;9.90;99.90;;;;;;4802921;29;20456;-51
2024/03/11 07:15:48;;;;;;;30.00;26.90;;;10.00;99.90;;;;;;4810470;29;20204;-52
2024/03/11 07:18:16;;;;;;;29.33;26.23;;;10.00;99.90;;;;;;4796799;29;20431;-47
2024/03/11 07:20:43;;;;;;;28.23;25.20;;;10.10;59.60;;;;;;4810950;29;20197;-46
2024/03/11 07:23:09;;;;;;;26.30;23.70;;;10.20;1.00;;;;;;4808952;29;20529;-47
2024/03/11 07:25:35;;;;;;;28.57;25.60;;;10.20;99.90;;;;;;4806453;29;20922;-47
2024/03/11 07:28:01;;;;;;;27.17;24.47;;;10.30;99.90;;;;;;4801941;29;20435;-46
2024/03/11 07:30:29;;;;;;;27.47;24.80;;;10.40;52.60;;;;;;4812625;29;20206;-48
2024/03/11 07:33:14;;;;;;;26.40;22.83;;;10.50;99.90;;;;;;4810642;29;20523;-48
2024/03/11 07:35:43;;;;;;;25.43;23.03;;;10.50;28.10;;;;;;4812678;29;20430;-48
2024/03/11 07:38:10;;;;;;;26.53;23.63;;;10.60;1.00;;;;;;4809986;29;20448;-50
2024/03/11 07:40:36;;;;;;;26.63;23.87;;;10.70;1.00;;;;;;4809602;29;20447;-44
2024/03/11 07:43:03;;;;;;;28.07;25.20;;;10.80;99.90;;;;;;4790058;29;20534;-45
2024/03/11 07:45:38;;;;;;;27.60;24.80;;;10.90;99.90;;;;;;4810806;29;20447;-48
2024/03/11 07:48:06;;;;;;;26.70;24.13;;;11.00;99.90;;;;;;4805619;29;20797;-51
2024/03/11 07:50:32;;;;;;;28.43;25.63;;;11.10;1.00;;;;;;4805377;29;20458;-47
2024/03/11 07:52:58;;;;;;;28.07;25.33;;;11.30;1.00;;;;;;4810321;29;20988;-47
2024/03/11 07:55:24;;;;;;;28.33;25.60;;;11.40;99.90;;;;;;4806741;29;20439;-49
2024/03/11 07:57:52;;;;;;;25.40;22.90;;;11.50;99.90;;;;;;4811447;29;20423;-44
2024/03/11 08:00:20;;;;;;;27.37;24.67;;;11.60;99.90;;;;;;4812040;29;20197;-48
2024/03/11 08:02:49;;;;;;;27.43;24.70;;;11.70;6.20;;;;;;4806470;29;21001;-47
2024/03/11 08:05:17;;;;;;;26.40;24.00;;;11.70;1.00;;;;;;4800854;29;20746;-47
2024/03/11 08:07:44;;;;;;;29.33;26.20;;;11.70;99.90;;;;;;4811537;29;20509;-50
2024/03/11 08:10:12;;;;;;;29.67;26.67;;;11.70;1.00;;;;;;4805883;29;20454;-45
2024/03/11 08:12:44;;;;;;;29.47;26.50;;;11.80;1.00;;;;;;4804067;29;20443;-45
2024/03/11 08:15:14;;;;;;;29.40;26.40;;;11.90;1.00;;;;;;4803139;29;21037;-49
2024/03/11 08:17:42;;;;;;;27.37;24.67;;;12.10;99.90;;;;;;4802458;29;20447;-48
2024/03/11 08:20:09;;;;;;;25.93;23.47;;;12.20;1.00;;;;;;4808987;29;21154;-46
2024/03/11 08:22:39;;;;;;;26.60;24.10;;;12.30;99.90;;;;;;4810572;29;20474;-52
2024/03/11 08:25:07;;;;;;;25.10;22.67;;;12.50;99.90;;;;;;4807053;29;20436;-50
2024/03/11 08:27:33;;;;;;;22.57;20.60;;;12.90;99.90;;;;;;4811472;29;20427;-46
2024/03/11 08:29:59;;;;;;;17.87;16.57;;;13.40;37.20;;;;;;4802637;29;20965;-47
2024/03/11 08:32:25;;;;;;;18.40;17.10;;;13.70;1.00;;;;;;4811442;29;20418;-46
2024/03/11 08:34:54;;;;;;;17.60;16.30;;;14.00;1.00;;;;;;4803835;29;20495;-49
2024/03/11 08:37:21;;;;;;;16.13;15.03;;;14.30;1.00;;;;;;4811701;29;20438;-48
2024/03/11 08:39:50;;;;;;;17.03;15.83;;;14.60;1.00;;;;;;4805028;29;20434;-43
2024/03/11 08:42:16;;;;;;;16.43;15.30;;;14.90;99.90;;;;;;4811558;29;20479;-48
2024/03/11 08:44:43;;;;;;;17.13;15.93;;;15.10;99.90;;;;;;4806379;29;20427;-48
2024/03/11 08:47:11;;;;;;;17.77;16.40;;;15.40;99.90;;;;;;4811294;29;20243;-49
2024/03/11 08:49:38;;;;;;;16.83;15.63;;;15.80;99.90;;;;;;4806761;29;20872;-51
2024/03/11 08:52:06;;;;;;;17.13;15.93;;;16.10;99.90;;;;;;4794717;29;20513;-52
2024/03/11 08:54:32;;;;;;;17.63;16.40;;;16.40;99.90;;;;;;4809731;29;20423;-64
2024/03/11 08:56:59;;;;;;;17.30;16.10;;;16.70;99.90;;;;;;4807914;29;20443;-61
2024/03/11 08:59:26;;;;;;;17.23;16.03;;;16.30;99.90;;;;;;4811191;29;20791;-64
2024/03/11 09:01:57;;;;;;;17.00;15.70;;;16.60;99.90;;;;;;4802778;29;20532;-65
2024/03/11 09:04:25;;;;;;;16.23;15.23;;;16.80;99.90;;;;;;4806912;29;20978;-63
2024/03/11 09:06:51;;;;;;;16.60;15.40;;;17.00;99.90;;;;;;4805228;29;20419;-64
2024/03/11 09:09:24;;;;;;;16.70;15.60;;;16.80;99.90;;;;;;4780204;29;20474;-65
2024/03/11 09:11:56;;;;;;;16.97;15.77;;;17.00;99.90;;;;;;4797061;29;20893;-64
2024/03/11 09:14:32;;;;;;;16.70;15.60;;;16.60;99.90;;;;;;4797902;29;20597;-63
2024/03/11 09:17:01;;;;;;;15.60;14.60;;;16.60;99.90;;;;;;4807926;29;20442;-59
2024/03/11 09:19:30;;;;;;;16.40;15.10;;;17.00;99.90;;;;;;4803865;29;20499;-54
2024/03/11 09:21:57;;;;;;;16.83;15.73;;;17.10;99.90;;;;;;4807994;29;21029;-64
2024/03/11 09:24:24;;;;;;;16.50;15.40;;;16.90;99.90;;;;;;4806219;29;20427;-56
2024/03/11 09:26:50;;;;;;;17.17;15.97;;;17.40;99.90;;;;;;4798952;29;20445;-65
2024/03/11 09:29:21;;;;;;;16.23;15.20;;;17.70;99.90;;;;;;4802893;29;20467;-65
2024/03/11 09:31:47;;;;;;;17.17;15.97;;;18.20;99.90;;;;;;4809264;29;20468;-62
2024/03/11 09:34:19;;;;;;;16.77;15.57;;;18.90;99.90;;;;;;4811087;29;20867;-65
2024/03/11 09:36:45;;;;;;;15.70;14.60;;;19.20;99.90;;;;;;4809832;29;20607;-64
2024/03/11 09:39:13;;;;;;;17.07;15.87;;;19.90;99.90;;;;;;4807531;29;20452;-61
2024/03/11 09:41:48;;;;;;;18.93;17.50;;;20.20;99.90;;;;;;4799308;29;20335;-65
2024/03/11 09:44:20;;;;;;;19.87;18.17;;;20.00;99.90;;;;;;4810592;29;20438;-65
2024/03/11 09:46:50;;;;;;;21.17;19.50;;;20.40;99.90;;;;;;4800864;29;20937;-65
2024/03/11 09:49:19;;;;;;;19.50;18.10;;;20.90;99.90;;;;;;4810341;29;20472;-65
2024/03/11 09:51:46;;;;;;;18.33;17.03;;;20.80;99.90;;;;;;4803132;29;20526;-66
2024/03/11 09:54:17;;;;;;;18.00;16.70;;;21.20;99.90;;;;;;4810574;29;20430;-59
2024/03/11 09:56:45;;;;;;;18.47;17.00;;;21.70;99.90;;;;;;4804044;29;20423;-62
2024/03/11 09:59:18;;;;;;;18.80;17.57;;;22.10;99.90;;;;;;4808769;29;20475;-65
2024/03/11 10:01:49;;;;;;;21.40;19.90;;;22.50;99.90;;;;;;4803850;29;20882;-64
2024/03/11 10:04:20;;;;;;;21.90;20.20;;;23.10;99.90;;;;;;4810535;29;20431;-66
2024/03/11 10:07:04;;;;;;;21.97;20.40;;;22.90;99.90;;;;;;4808375;29;20433;-65
2024/03/11 10:09:31;;;;;;;20.10;18.57;;;22.70;99.90;;;;;;4801017;29;20587;-62
2024/03/11 10:12:15;;;;;;;20.17;18.50;;;22.00;99.90;;;;;;4779107;29;20970;-66
2024/03/11 10:14:43;;;;;;;21.53;19.87;;;22.30;99.90;;;;;;4810473;29;20528;-66
2024/03/11 10:17:28;;;;;;;19.87;18.37;;;22.50;99.90;;;;;;4798742;29;20861;-66
2024/03/11 10:19:58;;;;;;;19.30;17.80;;;22.20;99.90;;;;;;4805761;29;20787;-45
2024/03/11 10:22:26;;;;;;;18.77;17.47;;;21.60;99.90;;;;;;4799738;29;20718;-45
2024/03/11 10:24:54;;;;;;;20.07;18.67;;;21.10;99.90;;;;;;4802496;29;20455;-49
2024/03/11 10:27:28;;;;;;;20.37;18.77;;;20.70;99.90;;;;;;4800331;29;20450;-54
2024/03/11 10:29:54;;;;;;;20.77;19.27;;;20.50;99.90;;;;;;4810333;29;20430;-65
2024/03/11 10:32:38;;;;;;;17.93;16.60;;;20.20;99.90;;;;;;4805294;29;20499;-61
2024/03/11 10:35:09;;;;;;;19.10;17.70;;;19.70;99.90;;;;;;4814080;29;20243;-65
2024/03/11 10:37:37;;;;;;;21.07;19.47;;;19.40;99.90;;;;;;4812902;29;20419;-64
2024/03/11 10:40:10;;;;;;;21.03;19.47;;;19.20;99.90;;;;;;4813332;29;20439;-64
2024/03/11 10:42:37;;;;;;;21.47;19.80;;;18.80;99.90;;;;;;4810972;29;20969;-61
2024/03/11 10:45:06;;;;;;;21.37;19.73;;;18.60;99.90;;;;;;4801112;29;20510;-64
2024/03/11 10:47:33;;;;;;;20.57;18.97;;;18.30;99.90;;;;;;4809634;29;20801;-64
2024/03/11 10:50:02;;;;;;;19.63;18.23;;;18.30;99.90;;;;;;4813456;29;20438;-64
2024/03/11 10:52:33;;;;;;;19.33;17.97;;;18.40;99.90;;;;;;4801686;29;20427;-65
2024/03/11 10:55:02;;;;;;;18.90;17.50;;;18.30;99.90;;;;;;4805423;29;20456;-65
2024/03/11 10:57:45;;;;;;;18.27;16.90;;;18.50;99.90;;;;;;4803141;29;20426;-63
2024/03/11 11:02:46;;;;;;;18.67;17.47;;;20.40;99.90;;;;;;4804569;29;20475;-65
2024/03/11 11:05:18;;;;;;;18.47;17.17;;;20.60;99.90;;;;;;4813769;29;20499;-63
2024/03/11 11:07:46;;;;;;;16.20;15.00;;;21.20;99.90;;;;;;4805753;29;20426;-66
2024/03/11 11:10:13;;;;;;;17.43;16.13;;;22.10;99.90;;;;;;4812992;29;20427;-63
2024/03/11 11:12:42;;;;;;;15.67;14.63;;;23.30;99.90;;;;;;4806615;29;20450;-61
2024/03/11 11:15:12;;;;;;;15.57;14.67;;;24.30;99.90;;;;;;4811174;29;20482;-64
2024/03/11 11:17:41;;;;;;;15.30;14.40;;;24.50;99.90;;;;;;4808571;29;20423;-64
2024/03/11 11:23:12;;;;;;;15.20;14.30;;;24.40;99.90;;;;;;4785083;29;20824;-64
2024/03/11 11:25:44;;;;;;;14.13;13.43;;;24.70;99.90;;;;;;4797693;29;20447;-60
2024/03/11 11:28:30;;;;;;;13.90;13.20;;;25.30;99.90;;;;;;4809039;29;20761;-64
2024/03/11 11:31:12;;;;;;;14.33;13.57;;;24.80;99.90;;;;;;4808840;29;20519;-64
2024/03/11 11:33:59;;;;;;;13.63;12.90;;;24.20;99.90;;;;;;4812069;29;20430;-64
2024/03/11 11:36:50;;;;;;;15.20;14.30;;;23.80;99.90;;;;;;4811812;29;20732;-48
2024/03/11 11:39:23;;;;;;;15.03;14.23;;;23.00;99.90;;;;;;4799936;29;20458;-47
2024/03/11 11:41:50;;;;;;;14.90;14.10;;;22.40;99.90;;;;;;4796376;29;20806;-51
2024/03/11 11:44:28;;;;;;;14.03;13.23;;;22.70;99.90;;;;;;4811427;29;20431;-50
2024/03/11 11:47:13;;;;;;;14.40;13.63;;;23.10;99.90;;;;;;4808946;29;20788;-51
2024/03/11 11:49:41;;;;;;;14.60;13.70;;;23.60;99.90;;;;;;4810574;29;20808;-64
2024/03/11 11:52:16;;;;;;;13.70;13.00;;;23.60;99.90;;;;;;4803963;29;21070;-65
2024/03/11 11:54:42;;;;;;;13.67;12.90;;;23.40;99.90;;;;;;4811866;29;20466;-65
2024/03/11 11:57:15;;;;;;;14.73;13.93;;;23.80;99.90;;;;;;4808429;29;20455;-65
2024/03/11 11:59:47;;;;;;;12.53;11.83;;;24.00;99.90;;;;;;4800517;29;20438;-59
2024/03/11 12:02:25;;;;;;;13.30;12.60;;;23.70;99.90;;;;;;4807907;29;20552;-65
2024/03/11 12:05:00;;;;;;;13.60;12.80;;;24.10;99.90;;;;;;4808674;29;20898;-65
2024/03/11 12:07:28;;;;;;;12.80;12.20;;;25.00;99.90;;;;;;4811207;29;20419;-65
2024/03/11 12:09:59;;;;;;;12.40;11.87;;;25.70;99.90;;;;;;4810372;29;20519;-65
2024/03/11 12:12:27;;;;;;;13.10;12.47;;;26.30;99.90;;;;;;4795044;29;20452;-48
2024/03/11 12:14:52;;;;;;;11.70;11.20;;;27.00;99.90;;;;;;4805085;29;21241;-49
2024/03/11 12:17:18;;;;;;;11.20;10.70;;;27.40;99.90;;;;;;4798509;29;20450;-53
2024/03/11 12:19:44;;;;;;;11.40;10.90;;;27.30;99.90;;;;;;4802136;29;20194;-49
2024/03/11 12:22:16;;;;;;;11.83;11.33;;;26.90;99.90;;;;;;4809607;29;20222;-54
2024/03/11 12:24:43;;;;;;;11.00;10.60;;;26.70;99.90;;;;;;4809964;29;20280;-47
2024/03/11 12:27:12;;;;;;;11.00;10.60;;;26.60;99.90;;;;;;4800563;29;20446;-48
2024/03/11 12:29:39;;;;;;;11.00;10.50;;;26.80;99.90;;;;;;4798901;29;20420;-52
2024/03/11 12:32:11;;;;;;;11.50;11.00;;;27.10;99.90;;;;;;4811596;29;20953;-50
2024/03/11 12:34:38;;;;;;;10.73;10.33;;;27.20;99.90;;;;;;4806592;29;20943;-48
2024/03/11 12:37:06;;;;;;;10.43;9.93;;;26.90;99.90;;;;;;4811681;29;20979;-50
2024/03/11 12:39:42;;;;;;;10.70;10.30;;;26.80;99.90;;;;;;4809796;29;20437;-50
2024/03/11 12:42:09;;;;;;;10.73;10.33;;;27.10;99.90;;;;;;4800225;29;20474;-47
2024/03/11 12:44:36;;;;;;;11.07;10.57;;;27.00;99.90;;;;;;4808487;29;20443;-48
2024/03/11 12:47:03;;;;;;;11.00;10.53;;;26.50;99.90;;;;;;4811670;29;20496;-51